Longrun, Missouri
Current Conditions -  °F | °C
As of 5:53 PM on Wednesday 26 Nov 2014 (Local Time) from KBPK Reporting Station
Clear Clear  
Wind Chill: 41°   Ceiling: Unl
Heat Index: 45°   Visibility: 10mi
Dew Point: 26°   Wind: 7mph
Humidity: 48%   Direction: NA
Pressure: 30.09"   Gusts: NA
Location:  36.5847°N, 92.7117°W
Report Text: KBPK 262353Z AUTO VRB06KT 10SM CLR 07/M03 A3009 RMK AO2 SLP194 T00721033 10094 20061 51021
Loading
Personal Weather Stations






























Interactive Weather Map New forecast layout! Learn more

10-Day Weather Forecast

Advertisements
Track Severe Weather on mobile